sensor_id;sensor_type;location;lat;lon;timestamp;temperature;humidity
66728;DHT22;53641;44.274;19.890;2023-04-12T00:02:04;13.00;93.10
66728;DHT22;53641;44.274;19.890;2023-04-12T00:04:30;13.10;93.70
66728;DHT22;53641;44.274;19.890;2023-04-12T00:06:58;13.10;94.40
66728;DHT22;53641;44.274;19.890;2023-04-12T00:09:25;13.20;95.20
66728;DHT22;53641;44.274;19.890;2023-04-12T00:11:58;13.20;95.80
66728;DHT22;53641;44.274;19.890;2023-04-12T00:14:24;13.10;95.90
66728;DHT22;53641;44.274;19.890;2023-04-12T00:16:50;13.10;96.00
66728;DHT22;53641;44.274;19.890;2023-04-12T00:19:16;13.10;97.00
66728;DHT22;53641;44.274;19.890;2023-04-12T00:21:42;13.10;97.60
66728;DHT22;53641;44.274;19.890;2023-04-12T00:24:08;13.10;98.80
66728;DHT22;53641;44.274;19.890;2023-04-12T00:26:34;13.10;99.90
66728;DHT22;53641;44.274;19.890;2023-04-12T00:28:59;13.00;99.90
66728;DHT22;53641;44.274;19.890;2023-04-12T00:31:25;13.00;99.90
66728;DHT22;53641;44.274;19.890;2023-04-12T00:33:51;12.90;99.90
66728;DHT22;53641;44.274;19.890;2023-04-12T00:36:16;12.90;99.90
66728;DHT22;53641;44.274;19.890;2023-04-12T00:38:42;12.70;99.90
66728;DHT22;53641;44.274;19.890;2023-04-12T00:41:10;12.70;99.90
66728;DHT22;53641;44.274;19.890;2023-04-12T00:43:36;12.70;99.90
66728;DHT22;53641;44.274;19.890;2023-04-12T00:46:02;12.70;99.90
66728;DHT22;53641;44.274;19.890;2023-04-12T00:48:27;12.60;99.90
66728;DHT22;53641;44.274;19.890;2023-04-12T00:50:53;12.60;99.90
66728;DHT22;53641;44.274;19.890;2023-04-12T00:53:22;12.60;99.90
66728;DHT22;53641;44.274;19.890;2023-04-12T00:55:49;12.50;99.90
66728;DHT22;53641;44.274;19.890;2023-04-12T00:58:15;12.50;99.90
66728;DHT22;53641;44.274;19.890;2023-04-12T01:00:41;12.50;99.90
66728;DHT22;53641;44.274;19.890;2023-04-12T01:03:20;12.50;99.90
66728;DHT22;53641;44.274;19.890;2023-04-12T01:05:59;12.50;99.90
66728;DHT22;53641;44.274;19.890;2023-04-12T01:08:33;12.40;99.90
66728;DHT22;53641;44.274;19.890;2023-04-12T01:11:04;12.30;99.90
66728;DHT22;53641;44.274;19.890;2023-04-12T01:13:34;12.30;99.90
66728;DHT22;53641;44.274;19.890;2023-04-12T01:16:21;12.30;99.90
66728;DHT22;53641;44.274;19.890;2023-04-12T01:18:47;12.30;99.90
66728;DHT22;53641;44.274;19.890;2023-04-12T01:21:17;12.30;99.90
66728;DHT22;53641;44.274;19.890;2023-04-12T01:24:00;12.30;99.90
66728;DHT22;53641;44.274;19.890;2023-04-12T01:26:43;12.30;99.90
66728;DHT22;53641;44.274;19.890;2023-04-12T01:29:10;12.40;99.90
66728;DHT22;53641;44.274;19.890;2023-04-12T01:31:35;12.30;99.90
66728;DHT22;53641;44.274;19.890;2023-04-12T01:34:03;12.30;99.90
66728;DHT22;53641;44.274;19.890;2023-04-12T01:36:29;12.20;99.90
66728;DHT22;53641;44.274;19.890;2023-04-12T01:38:55;12.20;99.90
66728;DHT22;53641;44.274;19.890;2023-04-12T01:41:22;12.30;99.90
66728;DHT22;53641;44.274;19.890;2023-04-12T01:43:47;12.20;99.90
66728;DHT22;53641;44.274;19.890;2023-04-12T01:46:14;12.20;99.90
66728;DHT22;53641;44.274;19.890;2023-04-12T01:48:51;12.20;99.90
66728;DHT22;53641;44.274;19.890;2023-04-12T01:51:21;12.10;99.90
66728;DHT22;53641;44.274;19.890;2023-04-12T01:53:54;12.20;99.90
66728;DHT22;53641;44.274;19.890;2023-04-12T01:56:21;12.20;99.90
66728;DHT22;53641;44.274;19.890;2023-04-12T01:58:50;12.20;99.90
66728;DHT22;53641;44.274;19.890;2023-04-12T02:01:16;12.20;99.90
66728;DHT22;53641;44.274;19.890;2023-04-12T02:03:43;12.30;99.90
66728;DHT22;53641;44.274;19.890;2023-04-12T02:06:10;12.30;99.90
66728;DHT22;53641;44.274;19.890;2023-04-12T02:08:35;12.30;99.90
66728;DHT22;53641;44.274;19.890;2023-04-12T02:11:06;12.30;99.90
66728;DHT22;53641;44.274;19.890;2023-04-12T02:13:32;12.20;99.90
66728;DHT22;53641;44.274;19.890;2023-04-12T02:15:58;12.30;99.90
66728;DHT22;53641;44.274;19.890;2023-04-12T02:18:23;12.30;99.90
66728;DHT22;53641;44.274;19.890;2023-04-12T02:20:49;12.20;99.90
66728;DHT22;53641;44.274;19.890;2023-04-12T02:23:15;12.20;99.90
66728;DHT22;53641;44.274;19.890;2023-04-12T02:25:41;12.20;99.90
66728;DHT22;53641;44.274;19.890;2023-04-12T02:28:07;12.20;99.90
66728;DHT22;53641;44.274;19.890;2023-04-12T02:30:33;12.10;99.90
66728;DHT22;53641;44.274;19.890;2023-04-12T02:32:58;12.20;99.90
66728;DHT22;53641;44.274;19.890;2023-04-12T02:35:24;12.10;99.90
66728;DHT22;53641;44.274;19.890;2023-04-12T02:37:50;12.10;99.90
66728;DHT22;53641;44.274;19.890;2023-04-12T02:40:15;12.10;99.90
66728;DHT22;53641;44.274;19.890;2023-04-12T02:42:41;12.10;99.90
66728;DHT22;53641;44.274;19.890;2023-04-12T02:45:08;12.10;99.90
66728;DHT22;53641;44.274;19.890;2023-04-12T02:47:33;12.00;99.90
66728;DHT22;53641;44.274;19.890;2023-04-12T02:49:59;12.00;99.90
66728;DHT22;53641;44.274;19.890;2023-04-12T02:52:25;12.10;99.90
66728;DHT22;53641;44.274;19.890;2023-04-12T02:54:53;12.00;99.90
66728;DHT22;53641;44.274;19.890;2023-04-12T02:57:18;12.10;99.90
66728;DHT22;53641;44.274;19.890;2023-04-12T02:59:46;12.10;99.90
66728;DHT22;53641;44.274;19.890;2023-04-12T03:02:13;12.10;99.90
66728;DHT22;53641;44.274;19.890;2023-04-12T03:04:38;12.20;99.90
66728;DHT22;53641;44.274;19.890;2023-04-12T03:07:04;12.10;99.90
66728;DHT22;53641;44.274;19.890;2023-04-12T03:09:31;12.10;99.90
66728;DHT22;53641;44.274;19.890;2023-04-12T03:11:56;12.00;99.90
66728;DHT22;53641;44.274;19.890;2023-04-12T03:14:22;12.00;99.90
66728;DHT22;53641;44.274;19.890;2023-04-12T03:16:48;12.10;99.90
66728;DHT22;53641;44.274;19.890;2023-04-12T03:19:15;12.10;99.90
66728;DHT22;53641;44.274;19.890;2023-04-12T03:21:41;12.10;99.90
66728;DHT22;53641;44.274;19.890;2023-04-12T03:24:07;12.00;99.90
66728;DHT22;53641;44.274;19.890;2023-04-12T03:26:33;12.00;99.90
66728;DHT22;53641;44.274;19.890;2023-04-12T03:28:59;11.90;99.90
66728;DHT22;53641;44.274;19.890;2023-04-12T03:31:25;11.90;99.90
66728;DHT22;53641;44.274;19.890;2023-04-12T03:33:51;11.90;99.90
66728;DHT22;53641;44.274;19.890;2023-04-12T03:36:17;11.90;99.90
66728;DHT22;53641;44.274;19.890;2023-04-12T03:38:44;11.90;99.90
66728;DHT22;53641;44.274;19.890;2023-04-12T03:41:10;11.90;99.90
66728;DHT22;53641;44.274;19.890;2023-04-12T03:43:36;11.90;99.90
66728;DHT22;53641;44.274;19.890;2023-04-12T03:46:02;11.80;99.90
66728;DHT22;53641;44.274;19.890;2023-04-12T03:48:28;11.70;99.90
66728;DHT22;53641;44.274;19.890;2023-04-12T03:50:53;11.70;99.90
66728;DHT22;53641;44.274;19.890;2023-04-12T03:53:19;11.70;99.90
66728;DHT22;53641;44.274;19.890;2023-04-12T03:55:45;11.70;99.90
66728;DHT22;53641;44.274;19.890;2023-04-12T03:58:11;11.70;99.90
66728;DHT22;53641;44.274;19.890;2023-04-12T04:00:38;11.80;99.90
66728;DHT22;53641;44.274;19.890;2023-04-12T04:03:03;11.70;99.90
66728;DHT22;53641;44.274;19.890;2023-04-12T04:05:30;11.70;99.90
66728;DHT22;53641;44.274;19.890;2023-04-12T04:07:56;11.80;99.90
66728;DHT22;53641;44.274;19.890;2023-04-12T04:10:27;11.80;99.90
66728;DHT22;53641;44.274;19.890;2023-04-12T04:12:53;11.70;99.90
66728;DHT22;53641;44.274;19.890;2023-04-12T04:15:18;11.70;99.90
66728;DHT22;53641;44.274;19.890;2023-04-12T04:17:44;11.80;99.90
66728;DHT22;53641;44.274;19.890;2023-04-12T04:20:11;11.80;99.90
66728;DHT22;53641;44.274;19.890;2023-04-12T04:22:38;11.90;99.90
66728;DHT22;53641;44.274;19.890;2023-04-12T04:25:03;11.80;99.90
66728;DHT22;53641;44.274;19.890;2023-04-12T04:27:30;11.80;99.90
66728;DHT22;53641;44.274;19.890;2023-04-12T04:29:58;11.70;99.90
66728;DHT22;53641;44.274;19.890;2023-04-12T04:32:27;11.80;99.90
66728;DHT22;53641;44.274;19.890;2023-04-12T04:34:54;11.90;99.90
66728;DHT22;53641;44.274;19.890;2023-04-12T04:37:20;11.80;99.90
66728;DHT22;53641;44.274;19.890;2023-04-12T04:39:46;11.80;99.90
66728;DHT22;53641;44.274;19.890;2023-04-12T04:42:12;11.80;99.90
66728;DHT22;53641;44.274;19.890;2023-04-12T04:44:37;11.70;99.90
66728;DHT22;53641;44.274;19.890;2023-04-12T04:47:03;11.60;99.90
66728;DHT22;53641;44.274;19.890;2023-04-12T04:49:29;11.60;99.90
66728;DHT22;53641;44.274;19.890;2023-04-12T04:51:55;11.60;99.90
66728;DHT22;53641;44.274;19.890;2023-04-12T04:54:21;11.60;99.90
66728;DHT22;53641;44.274;19.890;2023-04-12T04:56:46;11.60;99.90
66728;DHT22;53641;44.274;19.890;2023-04-12T04:59:12;11.60;99.90
66728;DHT22;53641;44.274;19.890;2023-04-12T05:01:37;11.60;99.90
66728;DHT22;53641;44.274;19.890;2023-04-12T05:04:05;11.50;99.90
66728;DHT22;53641;44.274;19.890;2023-04-12T05:06:31;11.50;99.90
66728;DHT22;53641;44.274;19.890;2023-04-12T05:08:56;11.50;99.90
66728;DHT22;53641;44.274;19.890;2023-04-12T05:11:22;11.50;99.90
66728;DHT22;53641;44.274;19.890;2023-04-12T05:13:48;11.50;99.90
66728;DHT22;53641;44.274;19.890;2023-04-12T05:16:13;11.60;99.90
66728;DHT22;53641;44.274;19.890;2023-04-12T05:18:39;11.50;99.90
66728;DHT22;53641;44.274;19.890;2023-04-12T05:21:05;11.60;99.90
66728;DHT22;53641;44.274;19.890;2023-04-12T05:23:35;11.60;99.90
66728;DHT22;53641;44.274;19.890;2023-04-12T05:26:05;11.60;99.90
66728;DHT22;53641;44.274;19.890;2023-04-12T05:28:30;11.70;99.90
66728;DHT22;53641;44.274;19.890;2023-04-12T05:30:56;12.10;99.90
66728;DHT22;53641;44.274;19.890;2023-04-12T05:33:22;12.70;99.90
66728;DHT22;53641;44.274;19.890;2023-04-12T05:35:48;13.40;99.20
66728;DHT22;53641;44.274;19.890;2023-04-12T05:38:14;13.90;96.10
66728;DHT22;53641;44.274;19.890;2023-04-12T05:40:40;14.40;93.40
66728;DHT22;53641;44.274;19.890;2023-04-12T05:43:08;14.80;92.10
66728;DHT22;53641;44.274;19.890;2023-04-12T05:45:37;15.40;90.30
66728;DHT22;53641;44.274;19.890;2023-04-12T05:48:03;15.80;87.10
66728;DHT22;53641;44.274;19.890;2023-04-12T05:50:29;16.00;84.40
66728;DHT22;53641;44.274;19.890;2023-04-12T05:52:54;15.80;83.40
66728;DHT22;53641;44.274;19.890;2023-04-12T05:55:20;16.00;82.10
66728;DHT22;53641;44.274;19.890;2023-04-12T05:57:46;16.10;80.40
66728;DHT22;53641;44.274;19.890;2023-04-12T06:00:12;16.10;79.00
66728;DHT22;53641;44.274;19.890;2023-04-12T06:02:42;16.20;78.10
66728;DHT22;53641;44.274;19.890;2023-04-12T06:05:07;16.60;76.80
66728;DHT22;53641;44.274;19.890;2023-04-12T06:07:33;16.80;74.80
66728;DHT22;53641;44.274;19.890;2023-04-12T06:09:59;17.30;74.40
66728;DHT22;53641;44.274;19.890;2023-04-12T06:12:25;17.40;72.90
66728;DHT22;53641;44.274;19.890;2023-04-12T06:14:51;17.50;71.60
66728;DHT22;53641;44.274;19.890;2023-04-12T06:17:20;17.70;71.60
66728;DHT22;53641;44.274;19.890;2023-04-12T06:19:46;17.90;71.90
66728;DHT22;53641;44.274;19.890;2023-04-12T06:22:11;18.70;70.30
66728;DHT22;53641;44.274;19.890;2023-04-12T06:24:37;19.50;67.40
66728;DHT22;53641;44.274;19.890;2023-04-12T06:27:03;20.10;66.30
66728;DHT22;53641;44.274;19.890;2023-04-12T06:29:28;21.30;65.60
66728;DHT22;53641;44.274;19.890;2023-04-12T06:31:54;22.40;64.10
66728;DHT22;53641;44.274;19.890;2023-04-12T06:34:20;23.60;61.70
66728;DHT22;53641;44.274;19.890;2023-04-12T06:36:46;24.30;59.70
66728;DHT22;53641;44.274;19.890;2023-04-12T06:39:12;24.90;58.40
66728;DHT22;53641;44.274;19.890;2023-04-12T06:41:40;25.20;56.30
66728;DHT22;53641;44.274;19.890;2023-04-12T06:44:08;25.60;56.20
66728;DHT22;53641;44.274;19.890;2023-04-12T06:46:34;26.00;55.60
66728;DHT22;53641;44.274;19.890;2023-04-12T06:49:00;26.70;55.00
66728;DHT22;53641;44.274;19.890;2023-04-12T06:51:25;27.10;53.90
66728;DHT22;53641;44.274;19.890;2023-04-12T06:53:52;27.10;52.90
66728;DHT22;53641;44.274;19.890;2023-04-12T06:56:18;27.30;53.40
66728;DHT22;53641;44.274;19.890;2023-04-12T06:58:43;27.70;52.60
66728;DHT22;53641;44.274;19.890;2023-04-12T07:01:09;27.40;52.10
66728;DHT22;53641;44.274;19.890;2023-04-12T07:03:35;27.40;52.00
66728;DHT22;53641;44.274;19.890;2023-04-12T07:06:01;27.40;52.00
66728;DHT22;53641;44.274;19.890;2023-04-12T07:08:27;28.00;52.00
66728;DHT22;53641;44.274;19.890;2023-04-12T07:10:53;28.00;52.20
66728;DHT22;53641;44.274;19.890;2023-04-12T07:13:19;28.00;52.20
66728;DHT22;53641;44.274;19.890;2023-04-12T07:37:40;29.90;48.20
66728;DHT22;53641;44.274;19.890;2023-04-12T07:40:05;30.00;48.00
66728;DHT22;53641;44.274;19.890;2023-04-12T07:42:31;30.30;48.10
66728;DHT22;53641;44.274;19.890;2023-04-12T07:44:57;30.50;48.20
66728;DHT22;53641;44.274;19.890;2023-04-12T07:47:23;31.20;49.20
66728;DHT22;53641;44.274;19.890;2023-04-12T07:49:48;30.80;48.70
66728;DHT22;53641;44.274;19.890;2023-04-12T07:52:14;31.10;47.90
66728;DHT22;53641;44.274;19.890;2023-04-12T07:54:40;30.80;46.30
66728;DHT22;53641;44.274;19.890;2023-04-12T07:57:06;30.80;46.50
66728;DHT22;53641;44.274;19.890;2023-04-12T07:59:33;31.60;46.90
66728;DHT22;53641;44.274;19.890;2023-04-12T08:01:58;32.00;46.90
66728;DHT22;53641;44.274;19.890;2023-04-12T08:04:24;32.40;46.60
66728;DHT22;53641;44.274;19.890;2023-04-12T08:06:51;32.60;46.70
66728;DHT22;53641;44.274;19.890;2023-04-12T08:09:16;32.00;46.90
66728;DHT22;53641;44.274;19.890;2023-04-12T08:11:42;31.90;46.00
66728;DHT22;53641;44.274;19.890;2023-04-12T08:14:08;31.30;46.50
66728;DHT22;53641;44.274;19.890;2023-04-12T08:16:34;31.60;46.50
66728;DHT22;53641;44.274;19.890;2023-04-12T08:19:00;31.90;46.30
66728;DHT22;53641;44.274;19.890;2023-04-12T08:21:26;31.40;46.90
66728;DHT22;53641;44.274;19.890;2023-04-12T08:23:52;31.00;47.10
66728;DHT22;53641;44.274;19.890;2023-04-12T08:26:17;31.60;47.10
66728;DHT22;53641;44.274;19.890;2023-04-12T08:28:43;31.50;45.10
66728;DHT22;53641;44.274;19.890;2023-04-12T08:31:09;31.50;45.30
66728;DHT22;53641;44.274;19.890;2023-04-12T08:33:35;31.30;46.90
66728;DHT22;53641;44.274;19.890;2023-04-12T08:36:01;31.40;46.60
66728;DHT22;53641;44.274;19.890;2023-04-12T08:38:27;31.60;45.70
66728;DHT22;53641;44.274;19.890;2023-04-12T08:40:52;31.80;46.20
66728;DHT22;53641;44.274;19.890;2023-04-12T08:43:18;32.10;45.20
66728;DHT22;53641;44.274;19.890;2023-04-12T08:45:45;32.10;45.60
66728;DHT22;53641;44.274;19.890;2023-04-12T08:48:10;31.90;46.60
66728;DHT22;53641;44.274;19.890;2023-04-12T08:50:36;31.30;46.20
66728;DHT22;53641;44.274;19.890;2023-04-12T08:53:02;31.30;44.70
66728;DHT22;53641;44.274;19.890;2023-04-12T08:55:28;30.90;45.90
66728;DHT22;53641;44.274;19.890;2023-04-12T08:57:53;30.20;45.40
66728;DHT22;53641;44.274;19.890;2023-04-12T09:00:23;29.20;47.10
66728;DHT22;53641;44.274;19.890;2023-04-12T09:02:49;28.50;47.50
66728;DHT22;53641;44.274;19.890;2023-04-12T09:05:14;27.70;46.10
66728;DHT22;53641;44.274;19.890;2023-04-12T09:07:40;27.70;48.50
66728;DHT22;53641;44.274;19.890;2023-04-12T09:10:06;27.60;47.20
66728;DHT22;53641;44.274;19.890;2023-04-12T09:12:32;27.30;46.50
66728;DHT22;53641;44.274;19.890;2023-04-12T09:15:08;26.70;46.20
66728;DHT22;53641;44.274;19.890;2023-04-12T09:17:36;26.60;46.50
66728;DHT22;53641;44.274;19.890;2023-04-12T09:20:20;26.50;47.00
66728;DHT22;53641;44.274;19.890;2023-04-12T09:22:47;26.20;47.60
66728;DHT22;53641;44.274;19.890;2023-04-12T09:25:14;25.90;48.20
66728;DHT22;53641;44.274;19.890;2023-04-12T09:27:47;25.60;48.40
66728;DHT22;53641;44.274;19.890;2023-04-12T09:30:17;25.30;48.60
66728;DHT22;53641;44.274;19.890;2023-04-12T09:32:43;25.50;48.40
66728;DHT22;53641;44.274;19.890;2023-04-12T09:35:09;25.20;50.50
66728;DHT22;53641;44.274;19.890;2023-04-12T09:37:35;25.50;48.50
66728;DHT22;53641;44.274;19.890;2023-04-12T09:40:04;24.50;47.30
66728;DHT22;53641;44.274;19.890;2023-04-12T09:42:34;23.90;47.00
66728;DHT22;53641;44.274;19.890;2023-04-12T09:45:00;23.60;48.10
66728;DHT22;53641;44.274;19.890;2023-04-12T09:47:37;23.60;49.40
66728;DHT22;53641;44.274;19.890;2023-04-12T09:50:04;23.50;49.30
66728;DHT22;53641;44.274;19.890;2023-04-12T09:52:34;23.40;49.60
66728;DHT22;53641;44.274;19.890;2023-04-12T09:55:01;23.00;50.70
66728;DHT22;53641;44.274;19.890;2023-04-12T09:57:27;23.20;51.10
66728;DHT22;53641;44.274;19.890;2023-04-12T09:59:54;23.40;50.70
66728;DHT22;53641;44.274;19.890;2023-04-12T10:02:24;23.20;49.10
66728;DHT22;53641;44.274;19.890;2023-04-12T10:04:51;23.00;49.20
66728;DHT22;53641;44.274;19.890;2023-04-12T10:07:17;22.60;50.00
66728;DHT22;53641;44.274;19.890;2023-04-12T10:09:43;22.30;51.20
66728;DHT22;53641;44.274;19.890;2023-04-12T10:12:09;21.70;48.90
66728;DHT22;53641;44.274;19.890;2023-04-12T10:14:35;21.20;50.60
66728;DHT22;53641;44.274;19.890;2023-04-12T10:17:02;21.00;51.70
66728;DHT22;53641;44.274;19.890;2023-04-12T10:19:29;21.00;50.70
66728;DHT22;53641;44.274;19.890;2023-04-12T10:21:55;21.00;50.40
66728;DHT22;53641;44.274;19.890;2023-04-12T10:24:22;20.90;50.60
66728;DHT22;53641;44.274;19.890;2023-04-12T10:26:48;20.60;51.70
66728;DHT22;53641;44.274;19.890;2023-04-12T10:29:25;20.10;52.80
66728;DHT22;53641;44.274;19.890;2023-04-12T10:31:52;20.10;53.90
66728;DHT22;53641;44.274;19.890;2023-04-12T10:34:22;19.90;52.30
66728;DHT22;53641;44.274;19.890;2023-04-12T10:36:51;19.80;52.20
66728;DHT22;53641;44.274;19.890;2023-04-12T10:39:17;19.10;52.40
66728;DHT22;53641;44.274;19.890;2023-04-12T10:42:42;18.40;53.30
66728;DHT22;53641;44.274;19.890;2023-04-12T10:44:29;18.40;54.90
66728;DHT22;53641;44.274;19.890;2023-04-12T10:46:54;18.70;55.90
66728;DHT22;53641;44.274;19.890;2023-04-12T10:49:20;18.70;53.70
66728;DHT22;53641;44.274;19.890;2023-04-12T10:52:14;18.20;53.70
66728;DHT22;53641;44.274;19.890;2023-04-12T10:54:32;18.00;54.40
66728;DHT22;53641;44.274;19.890;2023-04-12T10:56:59;18.10;57.20
66728;DHT22;53641;44.274;19.890;2023-04-12T10:59:51;18.20;54.40
66728;DHT22;53641;44.274;19.890;2023-04-12T11:02:15;18.30;53.00
66728;DHT22;53641;44.274;19.890;2023-04-12T11:05:04;18.40;54.90
66728;DHT22;53641;44.274;19.890;2023-04-12T11:07:40;18.50;55.20
66728;DHT22;53641;44.274;19.890;2023-04-12T11:10:16;18.70;57.10
66728;DHT22;53641;44.274;19.890;2023-04-12T11:12:53;18.90;55.30
66728;DHT22;53641;44.274;19.890;2023-04-12T11:15:25;18.80;54.40
66728;DHT22;53641;44.274;19.890;2023-04-12T11:17:55;18.90;54.60
66728;DHT22;53641;44.274;19.890;2023-04-12T11:20:21;18.90;55.90
66728;DHT22;53641;44.274;19.890;2023-04-12T11:22:46;18.90;55.00
66728;DHT22;53641;44.274;19.890;2023-04-12T11:25:14;18.90;56.30
66728;DHT22;53641;44.274;19.890;2023-04-12T11:27:47;18.80;54.30
66728;DHT22;53641;44.274;19.890;2023-04-12T11:30:13;18.80;55.40
66728;DHT22;53641;44.274;19.890;2023-04-12T11:32:39;18.80;55.50
66728;DHT22;53641;44.274;19.890;2023-04-12T11:35:06;18.80;56.40
66728;DHT22;53641;44.274;19.890;2023-04-12T11:37:32;18.80;55.20
66728;DHT22;53641;44.274;19.890;2023-04-12T11:40:00;18.80;54.50
66728;DHT22;53641;44.274;19.890;2023-04-12T11:42:29;18.70;55.90
66728;DHT22;53641;44.274;19.890;2023-04-12T11:44:55;18.60;56.40
66728;DHT22;53641;44.274;19.890;2023-04-12T11:47:21;18.60;54.60
66728;DHT22;53641;44.274;19.890;2023-04-12T11:49:49;18.40;57.50
66728;DHT22;53641;44.274;19.890;2023-04-12T11:52:15;18.20;54.90
66728;DHT22;53641;44.274;19.890;2023-04-12T11:54:42;18.10;57.30
66728;DHT22;53641;44.274;19.890;2023-04-12T11:57:09;18.20;55.60
66728;DHT22;53641;44.274;19.890;2023-04-12T11:59:35;18.20;56.00
66728;DHT22;53641;44.274;19.890;2023-04-12T12:02:01;18.20;56.00
66728;DHT22;53641;44.274;19.890;2023-04-12T12:04:28;18.20;56.90
66728;DHT22;53641;44.274;19.890;2023-04-12T12:06:54;18.30;57.90
66728;DHT22;53641;44.274;19.890;2023-04-12T12:09:21;18.40;54.60
66728;DHT22;53641;44.274;19.890;2023-04-12T12:11:47;18.40;55.60
66728;DHT22;53641;44.274;19.890;2023-04-12T12:14:17;18.30;55.00
66728;DHT22;53641;44.274;19.890;2023-04-12T12:16:43;18.40;54.10
66728;DHT22;53641;44.274;19.890;2023-04-12T12:19:15;18.50;56.40
66728;DHT22;53641;44.274;19.890;2023-04-12T12:21:49;18.50;57.00
66728;DHT22;53641;44.274;19.890;2023-04-12T12:24:18;18.50;55.30
66728;DHT22;53641;44.274;19.890;2023-04-12T12:26:45;18.50;54.30
66728;DHT22;53641;44.274;19.890;2023-04-12T12:29:16;18.50;56.20
66728;DHT22;53641;44.274;19.890;2023-04-12T12:31:46;18.40;55.40
66728;DHT22;53641;44.274;19.890;2023-04-12T12:34:13;18.50;54.60
66728;DHT22;53641;44.274;19.890;2023-04-12T12:36:39;18.50;55.00
66728;DHT22;53641;44.274;19.890;2023-04-12T12:39:08;18.60;54.20
66728;DHT22;53641;44.274;19.890;2023-04-12T12:41:35;18.70;54.20
66728;DHT22;53641;44.274;19.890;2023-04-12T12:44:00;18.60;53.00
66728;DHT22;53641;44.274;19.890;2023-04-12T12:46:26;18.30;51.00
66728;DHT22;53641;44.274;19.890;2023-04-12T12:48:52;18.50;53.90
66728;DHT22;53641;44.274;19.890;2023-04-12T12:51:18;18.50;54.10
66728;DHT22;53641;44.274;19.890;2023-04-12T12:53:46;18.40;53.60
66728;DHT22;53641;44.274;19.890;2023-04-12T12:56:12;18.30;52.70
66728;DHT22;53641;44.274;19.890;2023-04-12T12:58:38;18.30;53.10
66728;DHT22;53641;44.274;19.890;2023-04-12T13:01:04;18.40;54.50
66728;DHT22;53641;44.274;19.890;2023-04-12T13:03:30;18.40;54.70
66728;DHT22;53641;44.274;19.890;2023-04-12T13:05:56;18.50;54.20
66728;DHT22;53641;44.274;19.890;2023-04-12T13:08:22;18.30;51.90
66728;DHT22;53641;44.274;19.890;2023-04-12T13:10:48;18.10;52.20
66728;DHT22;53641;44.274;19.890;2023-04-12T13:13:14;18.10;52.60
66728;DHT22;53641;44.274;19.890;2023-04-12T13:15:40;18.00;54.10
66728;DHT22;53641;44.274;19.890;2023-04-12T13:18:06;18.00;52.70
66728;DHT22;53641;44.274;19.890;2023-04-12T13:20:32;18.10;53.00
66728;DHT22;53641;44.274;19.890;2023-04-12T13:22:57;18.20;53.80
66728;DHT22;53641;44.274;19.890;2023-04-12T13:25:23;18.10;52.60
66728;DHT22;53641;44.274;19.890;2023-04-12T13:27:49;17.70;52.10
66728;DHT22;53641;44.274;19.890;2023-04-12T13:30:17;17.50;53.00
66728;DHT22;53641;44.274;19.890;2023-04-12T13:32:43;17.50;52.80
66728;DHT22;53641;44.274;19.890;2023-04-12T13:35:11;17.80;54.50
66728;DHT22;53641;44.274;19.890;2023-04-12T13:37:37;17.80;53.90
66728;DHT22;53641;44.274;19.890;2023-04-12T13:40:03;17.90;53.60
66728;DHT22;53641;44.274;19.890;2023-04-12T13:42:29;17.90;52.80
66728;DHT22;53641;44.274;19.890;2023-04-12T13:44:55;18.00;51.60
66728;DHT22;53641;44.274;19.890;2023-04-12T13:47:21;17.90;52.30
66728;DHT22;53641;44.274;19.890;2023-04-12T13:49:47;18.00;52.70
66728;DHT22;53641;44.274;19.890;2023-04-12T13:52:12;18.10;52.70
66728;DHT22;53641;44.274;19.890;2023-04-12T13:54:38;18.10;51.50
66728;DHT22;53641;44.274;19.890;2023-04-12T13:57:05;18.00;50.10
66728;DHT22;53641;44.274;19.890;2023-04-12T13:59:31;17.90;52.30
66728;DHT22;53641;44.274;19.890;2023-04-12T14:01:57;18.00;53.30
66728;DHT22;53641;44.274;19.890;2023-04-12T14:04:22;17.80;52.70
66728;DHT22;53641;44.274;19.890;2023-04-12T14:06:48;17.80;53.70
66728;DHT22;53641;44.274;19.890;2023-04-12T14:09:24;18.00;52.60
66728;DHT22;53641;44.274;19.890;2023-04-12T14:11:50;18.00;51.40
66728;DHT22;53641;44.274;19.890;2023-04-12T14:14:16;18.00;52.80
66728;DHT22;53641;44.274;19.890;2023-04-12T14:16:42;18.00;51.30
66728;DHT22;53641;44.274;19.890;2023-04-12T14:19:09;18.00;52.00
66728;DHT22;53641;44.274;19.890;2023-04-12T14:21:34;17.90;50.70
66728;DHT22;53641;44.274;19.890;2023-04-12T14:24:00;17.90;49.90
66728;DHT22;53641;44.274;19.890;2023-04-12T14:26:26;17.70;49.90
66728;DHT22;53641;44.274;19.890;2023-04-12T14:28:52;17.70;50.20
66728;DHT22;53641;44.274;19.890;2023-04-12T14:31:18;17.60;50.00
66728;DHT22;53641;44.274;19.890;2023-04-12T14:33:44;17.50;50.10
66728;DHT22;53641;44.274;19.890;2023-04-12T14:36:09;17.30;50.10
66728;DHT22;53641;44.274;19.890;2023-04-12T14:38:35;17.20;51.30
66728;DHT22;53641;44.274;19.890;2023-04-12T14:41:05;17.30;50.70
66728;DHT22;53641;44.274;19.890;2023-04-12T14:43:31;17.20;51.00
66728;DHT22;53641;44.274;19.890;2023-04-12T14:45:57;17.40;52.00
66728;DHT22;53641;44.274;19.890;2023-04-12T14:48:23;17.40;51.60
66728;DHT22;53641;44.274;19.890;2023-04-12T14:50:48;17.50;51.30
66728;DHT22;53641;44.274;19.890;2023-04-12T14:53:14;17.50;52.20
66728;DHT22;53641;44.274;19.890;2023-04-12T14:55:40;17.50;50.50
66728;DHT22;53641;44.274;19.890;2023-04-12T14:58:06;17.40;49.90
66728;DHT22;53641;44.274;19.890;2023-04-12T15:00:32;17.50;51.30
66728;DHT22;53641;44.274;19.890;2023-04-12T15:02:58;17.50;50.60
66728;DHT22;53641;44.274;19.890;2023-04-12T15:05:25;17.50;51.90
66728;DHT22;53641;44.274;19.890;2023-04-12T15:07:52;17.30;50.80
66728;DHT22;53641;44.274;19.890;2023-04-12T15:10:18;17.20;51.10
66728;DHT22;53641;44.274;19.890;2023-04-12T15:12:44;17.20;51.20
66728;DHT22;53641;44.274;19.890;2023-04-12T15:15:11;17.30;52.00
66728;DHT22;53641;44.274;19.890;2023-04-12T15:17:36;17.40;50.80
66728;DHT22;53641;44.274;19.890;2023-04-12T15:20:02;17.40;50.90
66728;DHT22;53641;44.274;19.890;2023-04-12T15:22:35;17.30;52.00
66728;DHT22;53641;44.274;19.890;2023-04-12T15:25:01;17.20;52.40
66728;DHT22;53641;44.274;19.890;2023-04-12T15:27:27;17.00;52.80
66728;DHT22;53641;44.274;19.890;2023-04-12T15:29:54;17.00;53.00
66728;DHT22;53641;44.274;19.890;2023-04-12T15:32:20;16.90;53.20
66728;DHT22;53641;44.274;19.890;2023-04-12T15:34:47;17.00;53.70
66728;DHT22;53641;44.274;19.890;2023-04-12T15:37:12;17.00;53.50